Time;durP1;ratioP1;P1;durP2;ratioP2;P2;SDS_P1;SDS_P2;PMS_P1;PMS_P2;Temp;Humidity;BMP_temperature;BMP_pressure;BME280_temperature;BME280_humidity;BME280_pressure;Samples;Min_cycle;Max_cycle;Signal;HPM_P1;HPM_P2
2023/05/18 00:00:28;;;;;;;;;8.00;5.80;;;;;15.57;48.85;101956.91;2069162;28;46401;-68
2023/05/18 00:01:29;;;;;;;;;5.00;5.00;;;;;15.56;49.12;101964.97;2060852;28;46476;-67
2023/05/18 00:02:30;;;;;;;;;6.00;6.00;;;;;15.54;49.05;101948.97;2063958;28;46239;-66
2023/05/18 00:03:32;;;;;;;;;5.75;5.75;;;;;15.55;48.71;101957.88;2063597;28;46445;-67
2023/05/18 00:04:33;;;;;;;;;6.40;6.40;;;;;15.54;49.28;101957.00;2063128;28;46521;-67
2023/05/18 00:05:34;;;;;;;;;5.40;5.40;;;;;15.54;49.39;101958.78;2061384;28;46518;-67
2023/05/18 00:06:34;;;;;;;;;4.25;4.25;;;;;15.52;49.18;101961.50;2063307;28;46274;-67
2023/05/18 00:07:36;;;;;;;;;6.00;3.00;;;;;15.52;49.28;101958.81;2063832;28;46007;-65
2023/05/18 00:08:37;;;;;;;;;5.80;4.40;;;;;15.50;49.33;101957.06;2072552;28;46628;-66
2023/05/18 00:09:37;;;;;;;;;6.20;5.60;;;;;15.49;49.47;101956.19;2072442;28;46363;-65
2023/05/18 00:10:38;;;;;;;;;5.50;5.50;;;;;15.48;49.23;101949.06;2072618;28;46114;-65
2023/05/18 00:11:39;;;;;;;;;7.00;7.00;;;;;15.47;49.36;101952.69;2072474;28;46587;-66
2023/05/18 00:12:40;;;;;;;;;10.20;10.20;;;;;15.47;49.18;101955.34;2072179;28;46336;-65
2023/05/18 00:13:40;;;;;;;;;7.75;7.75;;;;;15.46;49.00;101956.25;2071772;28;46773;-65
2023/05/18 00:14:41;;;;;;;;;7.75;6.75;;;;;15.45;49.76;101950.94;2072654;28;47285;-66
2023/05/18 00:15:41;;;;;;;;;7.00;6.00;;;;;15.44;49.28;101947.41;2072680;28;46519;-66
2023/05/18 00:16:41;;;;;;;;;6.25;5.00;;;;;15.43;49.68;101948.31;2072397;28;46364;-65
2023/05/18 00:17:42;;;;;;;;;2.25;2.25;;;;;15.44;49.62;101954.53;2072606;28;46260;-66
2023/05/18 00:18:43;;;;;;;;;7.25;5.00;;;;;15.43;49.64;101953.66;2081055;28;46030;-66
2023/05/18 00:19:45;;;;;;;;;7.60;7.00;;;;;15.43;49.71;101952.78;2080342;28;46661;-66
2023/05/18 00:20:45;;;;;;;;;5.60;4.40;;;;;15.41;49.41;101954.63;2073333;28;46438;-66
2023/05/18 00:21:47;;;;;;;;;3.50;3.50;;;;;15.40;49.30;101951.06;2073823;28;46824;-65
2023/05/18 00:22:49;;;;;;;;;5.40;5.40;;;;;15.38;49.64;101955.56;2072660;28;46549;-66
2023/05/18 00:23:50;;;;;;;;;5.20;5.20;;;;;15.37;49.42;101950.22;2072650;28;46502;-65
2023/05/18 00:24:51;;;;;;;;;6.00;5.80;;;;;15.35;49.68;101957.41;2073049;28;45925;-66
2023/05/18 00:25:52;;;;;;;;;5.40;5.40;;;;;15.36;49.97;101951.16;2072582;28;46723;-65
2023/05/18 00:26:52;;;;;;;;;4.00;3.00;;;;;15.33;49.78;101949.44;2072554;28;45980;-64
2023/05/18 00:27:52;;;;;;;;;4.00;4.00;;;;;15.32;49.74;101947.66;2072810;28;45876;-67
2023/05/18 00:28:53;;;;;;;;;6.50;6.50;;;;;15.30;49.58;101949.50;2071317;28;46113;-68
2023/05/18 00:29:53;;;;;;;;;4.25;4.00;;;;;15.29;49.67;101945.06;2069991;28;47429;-66
2023/05/18 00:30:54;;;;;;;;;5.75;5.75;;;;;15.28;49.44;101948.66;2072268;28;46576;-66
2023/05/18 00:31:55;;;;;;;;;5.20;4.00;;;;;15.28;49.46;101943.31;2064662;28;47323;-66
2023/05/18 00:32:55;;;;;;;;;6.75;6.25;;;;;15.27;49.56;101945.09;2067695;28;46756;-66
2023/05/18 00:33:55;;;;;;;;;6.25;5.25;;;;;15.24;49.82;101947.81;2071377;28;47057;-66
2023/05/18 00:34:55;;;;;;;;;5.00;5.00;;;;;15.24;49.73;101941.59;2074305;28;45487;-66
2023/05/18 00:35:56;;;;;;;;;4.00;4.00;;;;;15.24;50.03;101944.25;2073887;28;46180;-65
2023/05/18 00:36:57;;;;;;;;;3.50;3.50;;;;;15.22;49.84;101938.94;2072594;28;46225;-66
2023/05/18 00:37:57;;;;;;;;;2.50;2.50;;;;;15.22;50.03;101940.75;2074248;28;46684;-67
2023/05/18 00:38:58;;;;;;;;;5.00;5.00;;;;;15.22;49.67;101944.31;2072317;28;46623;-65
2023/05/18 00:39:58;;;;;;;;;4.20;4.20;;;;;15.22;49.66;101938.06;2073167;28;46192;-65
2023/05/18 00:40:59;;;;;;;;;5.25;4.75;;;;;15.21;50.07;101936.31;2072224;28;46381;-67
2023/05/18 00:41:59;;;;;;;;;5.00;5.00;;;;;15.21;49.70;101944.34;2072617;28;45706;-66
2023/05/18 00:43:00;;;;;;;;;6.50;4.25;;;;;15.20;49.81;101935.44;2071301;28;46244;-66
2023/05/18 00:44:00;;;;;;;;;6.75;6.25;;;;;15.21;50.19;101941.66;2074156;28;46394;-67
2023/05/18 00:45:01;;;;;;;;;4.00;4.00;;;;;15.19;50.23;101940.81;2071292;28;46499;-66
2023/05/18 00:46:01;;;;;;;;;5.00;5.00;;;;;15.18;50.07;101939.94;2073012;28;46196;-66
2023/05/18 00:47:01;;;;;;;;;4.50;4.50;;;;;15.17;49.90;101939.97;2072258;28;46198;-66
2023/05/18 00:48:02;;;;;;;;;5.00;5.00;;;;;15.16;49.87;101938.22;2074189;28;46406;-67
2023/05/18 00:49:03;;;;;;;;;5.00;5.00;;;;;15.15;50.16;101941.81;2074340;28;46821;-67
2023/05/18 00:50:03;;;;;;;;;5.25;5.00;;;;;15.13;49.83;101940.97;2074071;28;46605;-67
2023/05/18 00:51:05;;;;;;;;;4.25;4.25;;;;;15.12;50.12;101936.50;2072007;28;46498;-66
2023/05/18 00:52:05;;;;;;;;;3.00;3.00;;;;;15.10;50.27;101935.66;2072243;28;46564;-66
2023/05/18 00:53:06;;;;;;;;;5.00;5.00;;;;;15.07;50.23;101933.06;2070247;28;46887;-70
2023/05/18 00:54:07;;;;;;;;;4.80;4.80;;;;;15.06;50.16;101937.53;2073371;28;46214;-66
2023/05/18 00:55:08;;;;;;;;;4.75;4.75;;;;;15.06;50.31;101936.66;2072537;28;46045;-66
2023/05/18 00:56:12;;;;;;;;;5.00;4.20;;;;;15.05;50.39;101934.88;2072383;28;46971;-65
2023/05/18 00:57:12;;;;;;;;;2.40;2.40;;;;;15.04;50.57;101946.50;2071976;28;46850;-66
2023/05/18 00:58:13;;;;;;;;;2.75;2.25;;;;;15.02;50.43;101933.16;2073142;28;46844;-66
2023/05/18 00:59:14;;;;;;;;;4.75;4.25;;;;;15.01;50.49;101936.75;2071688;28;46448;-66
2023/05/18 01:00:14;;;;;;;;;5.20;5.20;;;;;15.00;50.33;101938.53;2071706;28;46641;-66
2023/05/18 01:01:16;;;;;;;;;7.00;5.50;;;;;14.99;50.66;101934.13;2072336;28;46507;-65
2023/05/18 01:02:16;;;;;;;;;5.60;4.80;;;;;14.98;50.35;101940.34;2072652;28;46804;-65
2023/05/18 01:03:19;;;;;;;;;4.75;4.75;;;;;14.97;50.59;101938.59;2072594;28;46321;-67
2023/05/18 01:04:20;;;;;;;;;4.50;4.50;;;;;14.94;50.79;101935.09;2072301;28;46237;-66
2023/05/18 01:05:21;;;;;;;;;4.25;4.25;;;;;14.93;50.75;101942.25;2073097;28;46718;-66
2023/05/18 01:06:24;;;;;;;;;3.50;3.50;;;;;14.92;50.71;101942.28;2072485;28;46657;-65
2023/05/18 01:07:25;;;;;;;;;8.60;7.80;;;;;14.90;50.68;101939.63;2074357;28;46918;-66
2023/05/18 01:08:26;;;;;;;;;4.60;4.40;;;;;14.90;51.02;101936.09;2073794;28;46523;-64
2023/05/18 01:09:27;;;;;;;;;4.75;4.25;;;;;14.88;50.63;101944.13;2072380;28;47055;-66
2023/05/18 01:10:31;;;;;;;;;6.25;5.00;;;;;14.87;51.22;101942.38;2071400;28;46648;-67
2023/05/18 01:11:59;;;;;;;;;5.80;5.80;;;;;14.85;50.94;101936.16;2073025;28;45695;-66
2023/05/18 01:13:05;;;;;;;;;4.80;4.80;;;;;14.84;51.10;101938.88;2076108;28;46846;-65
2023/05/18 01:14:18;;;;;;;;;5.60;4.20;;;;;14.83;51.14;101948.69;2072093;28;46609;-66
2023/05/18 01:15:23;;;;;;;;;4.80;4.40;;;;;14.82;50.78;101941.56;2073032;28;45997;-66
2023/05/18 01:16:33;;;;;;;;;4.50;2.75;;;;;14.82;50.82;101948.72;2071450;28;46635;-66
2023/05/18 01:17:46;;;;;;;;;6.00;5.00;;;;;14.78;51.22;101945.22;2066111;28;46924;-66
2023/05/18 01:18:59;;;;;;;;;6.00;4.60;;;;;14.80;51.00;101950.53;2072810;28;46904;-66
2023/05/18 01:20:19;;;;;;;;;4.60;4.60;;;;;14.77;51.37;101943.47;2072847;28;46658;-67
2023/05/18 01:21:41;;;;;;;;;4.60;4.00;;;;;14.75;51.24;101945.28;2072282;28;46737;-65
2023/05/18 01:22:49;;;;;;;;;5.40;4.00;;;;;14.74;51.53;101940.88;2080066;28;47169;-66
2023/05/18 01:24:24;;;;;;;;;3.40;2.40;;;;;14.74;51.21;101948.88;2071260;28;46524;-66
2023/05/18 01:25:45;;;;;;;;;5.80;5.00;;;;;14.73;51.53;101936.41;2071301;28;46034;-66
2023/05/18 01:26:49;;;;;;;;;6.00;5.80;;;;;14.72;51.74;101940.88;2071665;28;46427;-66
2023/05/18 01:27:50;;;;;;;;;7.60;5.00;;;;;14.72;51.47;101938.19;2067469;28;46322;-67
2023/05/18 01:28:51;;;;;;;;;5.00;5.00;;;;;14.72;51.69;101939.97;2072115;28;46274;-66
2023/05/18 01:29:54;;;;;;;;;5.20;3.80;;;;;14.71;51.56;101936.44;2072633;28;46775;-66
2023/05/18 01:30:55;;;;;;;;;5.80;5.20;;;;;14.70;51.49;101940.00;2071642;28;46538;-65
2023/05/18 01:31:56;;;;;;;;;5.00;5.00;;;;;14.70;51.58;101941.81;2071909;28;46824;-66
2023/05/18 01:32:57;;;;;;;;;5.40;5.00;;;;;14.69;51.75;101935.59;2072216;28;46844;-66
2023/05/18 01:33:57;;;;;;;;;3.00;3.00;;;;;14.68;51.27;101936.50;2072150;28;46593;-67
2023/05/18 01:34:57;;;;;;;;;4.00;4.00;;;;;14.67;51.64;101937.41;2072266;28;46400;-66
2023/05/18 01:35:58;;;;;;;;;7.00;6.00;;;;;14.67;51.86;101940.09;2072443;28;46289;-65
2023/05/18 01:36:58;;;;;;;;;3.25;3.25;;;;;14.67;51.91;101941.88;2071687;28;46220;-67
2023/05/18 01:37:59;;;;;;;;;8.75;5.75;;;;;14.66;51.43;101942.78;2063919;28;45511;-65
2023/05/18 01:39:00;;;;;;;;;4.25;4.25;;;;;14.64;52.03;101940.16;2071226;28;46372;-66
2023/05/18 01:40:03;;;;;;;;;5.00;5.00;;;;;14.63;51.89;101941.06;2072382;28;45752;-68
2023/05/18 01:41:12;;;;;;;;;7.00;7.00;;;;;14.62;52.16;101946.44;2071307;28;46546;-66
2023/05/18 01:42:25;;;;;;;;;4.60;4.60;;;;;14.61;51.72;101950.00;2071064;28;46642;-66
2023/05/18 01:43:36;;;;;;;;;6.60;4.80;;;;;14.60;51.90;101948.22;2072018;28;46568;-67
2023/05/18 01:44:50;;;;;;;;;5.00;5.00;;;;;14.58;52.12;101944.72;2062088;28;46552;-66
2023/05/18 01:45:55;;;;;;;;;6.60;5.00;;;;;14.57;51.89;101946.50;2062682;28;46449;-67
2023/05/18 01:47:03;;;;;;;;;4.75;4.75;;;;;14.55;52.23;101948.31;2072188;28;47119;-67
2023/05/18 01:48:05;;;;;;;;;8.20;7.00;;;;;14.55;52.05;101947.44;2071299;28;46119;-66
2023/05/18 01:49:19;;;;;;;;;5.00;4.40;;;;;14.54;52.25;101951.91;2072056;28;46442;-67
2023/05/18 01:50:29;;;;;;;;;7.00;7.00;;;;;14.56;52.23;101949.22;2072223;28;46332;-67
2023/05/18 01:51:35;;;;;;;;;4.00;4.00;;;;;14.55;52.32;101953.66;2071716;28;46445;-66
2023/05/18 01:52:41;;;;;;;;;9.60;7.00;;;;;14.53;52.29;101952.81;2070595;28;46577;-66
2023/05/18 01:53:45;;;;;;;;;4.00;4.00;;;;;14.51;52.32;101943.97;2072806;28;46559;-66
2023/05/18 01:54:53;;;;;;;;;5.80;5.00;;;;;14.50;52.64;101946.66;2072024;28;46310;-67
2023/05/18 01:55:54;;;;;;;;;4.80;4.40;;;;;14.47;52.23;101947.56;2071758;28;46360;-66
2023/05/18 01:56:57;;;;;;;;;4.40;3.40;;;;;14.47;52.14;101946.69;2072390;28;46969;-67
2023/05/18 01:57:59;;;;;;;;;6.00;6.00;;;;;14.46;52.69;101947.59;2072255;28;46935;-68
2023/05/18 01:59:01;;;;;;;;;5.20;3.60;;;;;14.45;52.32;101952.06;2072995;28;45645;-68
2023/05/18 02:00:06;;;;;;;;;5.00;5.00;;;;;14.42;52.29;101942.28;2072081;28;46409;-67
2023/05/18 02:01:07;;;;;;;;;4.80;4.80;;;;;14.41;52.30;101945.88;2065810;28;47570;-66
2023/05/18 02:02:07;;;;;;;;;6.75;4.00;;;;;14.41;52.58;101947.66;2072660;28;46768;-67
2023/05/18 02:03:07;;;;;;;;;5.25;5.00;;;;;14.40;52.39;101945.91;2071957;28;47069;-67
2023/05/18 02:04:09;;;;;;;;;6.00;4.25;;;;;14.39;52.61;101945.03;2073127;28;46648;-66
2023/05/18 02:05:12;;;;;;;;;5.40;4.80;;;;;14.38;52.63;101947.72;2071229;28;46733;-66
2023/05/18 02:06:12;;;;;;;;;6.20;6.20;;;;;14.36;52.77;101947.75;2071491;28;46538;-67
2023/05/18 02:07:12;;;;;;;;;5.25;5.25;;;;;14.35;52.54;101948.63;2071006;28;46113;-66
2023/05/18 02:08:13;;;;;;;;;7.25;5.25;;;;;14.36;52.47;101949.56;2070658;28;46408;-67
2023/05/18 02:09:13;;;;;;;;;6.25;5.50;;;;;14.35;52.56;101953.97;2071744;28;46932;-66
2023/05/18 02:10:13;;;;;;;;;5.00;5.00;;;;;14.35;52.62;101953.97;2072032;28;46704;-66
2023/05/18 02:11:14;;;;;;;;;5.50;5.50;;;;;14.35;53.13;101945.97;2070874;28;46541;-67
2023/05/18 02:12:14;;;;;;;;;4.25;4.25;;;;;14.34;52.54;101946.88;2072136;28;46313;-67
2023/05/18 02:13:15;;;;;;;;;7.25;7.25;;;;;14.34;52.39;101948.66;2067649;28;46512;-67
2023/05/18 02:14:15;;;;;;;;;6.25;4.75;;;;;14.34;52.54;101943.34;2067035;28;45864;-67
2023/05/18 02:15:16;;;;;;;;;4.25;4.25;;;;;14.32;52.91;101946.03;2072381;28;46137;-69
2023/05/18 02:16:16;;;;;;;;;5.75;5.75;;;;;14.32;52.69;101943.34;2072119;28;46438;-67
2023/05/18 02:17:16;;;;;;;;;6.00;6.00;;;;;14.32;52.77;101945.16;2071810;28;45633;-69
2023/05/18 02:18:17;;;;;;;;;6.25;6.25;;;;;14.31;52.74;101943.38;2072090;28;46266;-67
2023/05/18 02:19:20;;;;;;;;;5.00;5.00;;;;;14.32;52.66;101947.81;2071772;28;46284;-67
2023/05/18 02:20:21;;;;;;;;;5.00;5.00;;;;;14.30;52.91;101942.50;2072261;28;45922;-68
2023/05/18 02:21:21;;;;;;;;;6.25;6.00;;;;;14.30;52.95;101941.63;2070663;28;46606;-67
2023/05/18 02:22:21;;;;;;;;;7.00;7.00;;;;;14.27;52.73;101942.56;2071437;28;45996;-67
2023/05/18 02:23:22;;;;;;;;;6.25;5.50;;;;;14.25;52.94;101931.03;2072035;28;46191;-68
2023/05/18 02:24:23;;;;;;;;;5.00;4.25;;;;;14.25;53.12;101939.06;2070360;28;46757;-68
2023/05/18 02:25:23;;;;;;;;;4.20;4.00;;;;;14.25;52.94;101947.06;2071053;28;46681;-68
2023/05/18 02:26:25;;;;;;;;;4.50;4.50;;;;;14.24;52.82;101942.63;2071467;28;46326;-67
2023/05/18 02:27:25;;;;;;;;;6.20;6.20;;;;;14.22;52.82;101938.19;2071571;28;45602;-66
2023/05/18 02:28:26;;;;;;;;;6.00;6.00;;;;;14.22;53.17;101946.22;2071124;28;46265;-66
2023/05/18 02:29:26;;;;;;;;;6.00;5.25;;;;;14.21;53.06;101941.78;2066766;28;46381;-67
2023/05/18 02:30:28;;;;;;;;;9.00;8.00;;;;;14.20;52.85;101942.69;2071060;28;46850;-66
2023/05/18 02:31:29;;;;;;;;;6.80;6.80;;;;;14.19;53.24;101952.50;2071117;28;46166;-65
2023/05/18 02:32:37;;;;;;;;;6.20;6.00;;;;;14.19;53.37;101951.59;2071525;28;46854;-65
2023/05/18 02:33:40;;;;;;;;;6.20;6.00;;;;;14.17;53.10;101948.97;2064604;28;46600;-66
2023/05/18 02:34:41;;;;;;;;;3.50;3.50;;;;;14.15;53.09;101953.47;2070828;28;46641;-66
2023/05/18 02:35:41;;;;;;;;;6.00;6.00;;;;;14.14;53.01;101949.03;2074181;28;46911;-66
2023/05/18 02:36:42;;;;;;;;;7.75;7.00;;;;;14.13;53.37;101950.81;2067873;28;46193;-66
2023/05/18 02:37:43;;;;;;;;;11.00;9.00;;;;;14.13;53.05;101948.16;2071767;28;46884;-65
2023/05/18 02:38:43;;;;;;;;;6.50;6.50;;;;;14.12;53.17;101950.84;2075542;28;46202;-68
2023/05/18 02:39:44;;;;;;;;;7.25;5.25;;;;;14.12;53.41;101950.84;2077010;28;46199;-66
2023/05/18 02:40:44;;;;;;;;;5.75;5.00;;;;;14.10;53.13;101953.56;2064920;28;46638;-67
2023/05/18 02:41:45;;;;;;;;;7.00;7.00;;;;;14.10;53.14;101955.31;2067665;28;46286;-67
2023/05/18 02:42:45;;;;;;;;;5.25;5.00;;;;;14.08;53.09;101954.44;2061266;28;46290;-67
2023/05/18 02:43:45;;;;;;;;;7.00;6.00;;;;;14.07;53.25;101963.38;2066394;28;46207;-68
2023/05/18 02:44:45;;;;;;;;;6.00;5.75;;;;;14.05;53.49;101958.06;2064738;28;46132;-65
2023/05/18 02:45:46;;;;;;;;;4.75;4.75;;;;;14.03;53.55;101965.22;2065080;28;46461;-68
2023/05/18 02:46:46;;;;;;;;;8.00;7.75;;;;;14.02;53.58;101955.44;2073830;28;46792;-68
2023/05/18 02:47:46;;;;;;;;;5.50;5.50;;;;;14.02;53.58;101959.91;2078302;28;46786;-67
2023/05/18 02:48:47;;;;;;;;;5.00;5.00;;;;;14.02;53.47;101958.13;2072333;28;45436;-67
2023/05/18 02:49:47;;;;;;;;;6.00;6.00;;;;;14.02;53.58;101957.25;2073591;28;46745;-69
2023/05/18 02:50:48;;;;;;;;;6.25;6.25;;;;;14.00;53.58;101959.06;2073522;28;46698;-67
2023/05/18 02:51:48;;;;;;;;;5.25;5.25;;;;;13.99;53.67;101957.28;2074248;28;46374;-67
2023/05/18 02:52:49;;;;;;;;;8.75;6.75;;;;;14.00;53.50;101959.06;2072882;28;46199;-66
2023/05/18 02:53:50;;;;;;;;;7.00;6.00;;;;;13.99;53.76;101954.63;2075934;28;45821;-67
2023/05/18 02:54:53;;;;;;;;;7.60;7.60;;;;;13.98;53.59;101959.09;2070663;28;45558;-67
2023/05/18 02:55:57;;;;;;;;;5.60;5.60;;;;;13.97;53.78;101956.41;2068867;28;47344;-66
2023/05/18 02:56:57;;;;;;;;;8.40;8.20;;;;;13.94;53.82;101960.00;2063388;28;46959;-67
2023/05/18 02:57:58;;;;;;;;;4.25;4.25;;;;;13.94;53.91;101953.81;2070607;28;45476;-66
2023/05/18 02:58:59;;;;;;;;;7.20;6.80;;;;;13.94;53.64;101956.47;2071205;28;46061;-67
2023/05/18 03:00:00;;;;;;;;;6.75;6.75;;;;;13.94;53.76;101954.69;2061883;28;47251;-65
2023/05/18 03:01:02;;;;;;;;;5.33;5.33;;;;;13.94;53.77;101952.00;2062440;28;46868;-66
2023/05/18 03:02:02;;;;;;;;;5.00;5.00;;;;;13.94;53.58;101951.13;2073386;28;45334;-67
2023/05/18 03:03:03;;;;;;;;;6.00;6.00;;;;;13.93;53.57;101958.25;2070644;28;46298;-67
2023/05/18 03:04:03;;;;;;;;;5.00;5.00;;;;;13.92;53.65;101953.81;2064122;28;45368;-67
2023/05/18 03:05:04;;;;;;;;;7.33;7.33;;;;;13.93;53.76;101954.72;2076273;28;45681;-67
2023/05/18 03:06:07;;;;;;;;;8.80;7.00;;;;;13.91;53.75;101952.06;2071996;28;46611;-66
2023/05/18 03:07:09;;;;;;;;;7.60;6.00;;;;;13.90;53.84;101950.31;2078308;28;46295;-67
2023/05/18 03:08:09;;;;;;;;;7.50;7.50;;;;;13.90;53.61;101954.75;2074602;28;45899;-67
2023/05/18 03:09:09;;;;;;;;;8.25;8.00;;;;;13.89;53.70;101953.00;2077204;28;46080;-67
2023/05/18 03:10:10;;;;;;;;;5.00;5.00;;;;;13.87;53.80;101945.03;2073091;28;46490;-67
2023/05/18 03:11:10;;;;;;;;;6.00;6.00;;;;;13.86;53.72;101951.28;2072588;28;46348;-67
2023/05/18 03:12:11;;;;;;;;;5.33;4.67;;;;;13.88;53.80;101948.56;2072603;28;46476;-67
2023/05/18 03:13:11;;;;;;;;;8.00;8.00;;;;;13.87;53.90;101950.38;2063485;28;46287;-67
2023/05/18 03:14:11;;;;;;;;;5.33;5.33;;;;;13.87;53.95;101952.16;2064345;28;47315;-67
2023/05/18 03:15:15;;;;;;;;;6.67;6.67;;;;;13.86;54.08;101951.28;2063620;28;46451;-67
2023/05/18 03:16:15;;;;;;;;;6.20;5.60;;;;;13.87;54.06;101946.81;2064119;28;46583;-67
2023/05/18 03:17:15;;;;;;;;;7.00;5.00;;;;;13.86;54.02;101947.72;2074367;28;45031;-66
2023/05/18 03:18:19;;;;;;;;;10.00;9.00;;;;;13.84;53.86;101948.59;2077358;28;46464;-68
2023/05/18 03:19:19;;;;;;;;;9.75;7.00;;;;;13.84;54.19;101947.72;2078968;28;45804;-67
2023/05/18 03:20:20;;;;;;;;;6.67;5.67;;;;;13.84;54.03;101950.38;2076833;28;46315;-66
2023/05/18 03:21:20;;;;;;;;;8.50;8.25;;;;;13.83;54.07;101946.84;2072614;28;46456;-67
2023/05/18 03:22:21;;;;;;;;;6.33;6.33;;;;;13.83;54.08;101946.84;2071047;28;46711;-67
2023/05/18 03:23:21;;;;;;;;;7.00;7.00;;;;;13.83;54.28;101946.84;2085849;28;46830;-66
2023/05/18 03:24:25;;;;;;;;;7.25;6.50;;;;;13.84;53.91;101945.03;2083497;28;46621;-66
2023/05/18 03:25:25;;;;;;;;;7.20;7.20;;;;;13.83;54.25;101949.50;2072799;28;46657;-66
2023/05/18 03:26:29;;;;;;;;;6.33;6.33;;;;;13.83;54.21;101952.19;2072367;28;46485;-67
2023/05/18 03:27:30;;;;;;;;;6.75;5.50;;;;;13.82;53.87;101950.41;2072902;28;46401;-67
2023/05/18 03:28:30;;;;;;;;;8.25;7.00;;;;;13.82;54.12;101950.41;2072708;28;46482;-67
2023/05/18 03:29:31;;;;;;;;;9.00;9.00;;;;;13.82;53.82;101950.41;2074181;28;45738;-65
2023/05/18 03:30:32;;;;;;;;;8.00;8.00;;;;;13.81;54.18;101951.31;2072369;28;46482;-65
2023/05/18 03:31:33;;;;;;;;;8.40;7.20;;;;;13.80;54.17;101949.56;2072985;28;46617;-67
2023/05/18 03:32:35;;;;;;;;;10.50;8.50;;;;;13.79;54.11;101945.13;2072365;28;46110;-67
2023/05/18 03:33:36;;;;;;;;;7.20;7.00;;;;;13.79;53.71;101950.47;2073412;28;46711;-66
2023/05/18 03:34:37;;;;;;;;;8.50;8.50;;;;;13.79;54.07;101947.81;2069378;28;46747;-66
2023/05/18 03:35:39;;;;;;;;;9.60;7.20;;;;;13.78;54.19;101943.38;2072191;28;46361;-65
2023/05/18 03:36:41;;;;;;;;;6.60;6.60;;;;;13.76;53.91;101945.19;2073200;28;47206;-67
2023/05/18 03:37:41;;;;;;;;;7.60;7.60;;;;;13.75;54.40;101948.75;2072112;28;46384;-66
2023/05/18 03:38:45;;;;;;;;;8.00;7.00;;;;;13.74;54.16;101940.78;2072419;28;46518;-67
2023/05/18 03:39:45;;;;;;;;;7.80;7.80;;;;;13.73;54.22;101942.56;2072372;28;45940;-66
2023/05/18 03:40:46;;;;;;;;;6.75;6.75;;;;;13.73;54.28;101941.69;2072543;28;46582;-66
2023/05/18 03:41:46;;;;;;;;;6.50;5.25;;;;;13.73;54.41;101939.91;2072555;28;46545;-66
2023/05/18 03:42:46;;;;;;;;;8.00;7.00;;;;;13.72;54.30;101940.81;2072937;28;46566;-66
2023/05/18 03:43:47;;;;;;;;;7.00;5.75;;;;;13.71;54.38;101940.81;2073085;28;46808;-66
2023/05/18 03:44:47;;;;;;;;;8.33;7.00;;;;;13.70;54.54;101936.38;2073146;28;46808;-66
2023/05/18 03:45:47;;;;;;;;;8.00;7.00;;;;;13.70;54.22;101939.03;2072143;28;46202;-66
2023/05/18 03:46:48;;;;;;;;;9.00;7.00;;;;;13.70;54.28;101945.25;2072649;28;47055;-65
2023/05/18 03:47:48;;;;;;;;;8.50;7.50;;;;;13.69;54.14;101942.63;2075334;28;46512;-66
2023/05/18 03:48:49;;;;;;;;;8.00;8.00;;;;;13.67;54.37;101937.31;2073280;28;46735;-66
2023/05/18 03:49:49;;;;;;;;;6.00;6.00;;;;;13.68;54.31;101940.88;2072855;28;46288;-65
2023/05/18 03:50:50;;;;;;;;;9.33;8.00;;;;;13.67;54.22;101941.78;2072505;28;46475;-66
2023/05/18 03:51:53;;;;;;;;;8.00;7.67;;;;;13.67;54.54;101941.78;2087328;28;45419;-64
2023/05/18 03:52:54;;;;;;;;;7.60;6.00;;;;;13.66;54.35;101943.56;2081132;28;47191;-66
2023/05/18 03:53:54;;;;;;;;;8.40;7.40;;;;;13.65;54.49;101936.47;2070204;28;46562;-66
2023/05/18 03:54:55;;;;;;;;;8.00;8.00;;;;;13.65;54.54;101939.13;2062718;28;46758;-66
2023/05/18 03:55:55;;;;;;;;;8.67;8.00;;;;;13.63;54.72;101938.28;2053839;28;46777;-66
2023/05/18 03:56:56;;;;;;;;;6.00;6.00;;;;;13.63;54.64;101940.06;2071236;28;46290;-66
2023/05/18 03:57:57;;;;;;;;;7.33;7.33;;;;;13.62;54.48;101941.84;2072885;28;46185;-66
2023/05/18 03:58:58;;;;;;;;;8.75;8.75;;;;;13.59;54.47;101933.88;2072047;28;46609;-65
2023/05/18 03:59:59;;;;;;;;;6.80;6.80;;;;;13.58;54.65;101937.44;2071905;28;46955;-67
2023/05/18 04:01:00;;;;;;;;;9.00;9.00;;;;;13.58;54.43;101939.22;2072255;28;46526;-67
2023/05/18 04:02:00;;;;;;;;;6.00;6.00;;;;;13.57;54.61;101940.13;2072250;28;46914;-66
2023/05/18 04:03:02;;;;;;;;;7.00;7.00;;;;;13.56;54.60;101944.59;2071186;28;46756;-66
2023/05/18 04:04:02;;;;;;;;;9.00;7.00;;;;;13.57;54.68;101945.47;2072978;28;46563;-65
2023/05/18 04:05:04;;;;;;;;;8.00;8.00;;;;;13.55;54.63;101945.50;2072625;28;46790;-66
2023/05/18 04:06:05;;;;;;;;;11.00;8.75;;;;;13.54;54.62;101941.94;2072151;28;46441;-65
2023/05/18 04:07:05;;;;;;;;;9.00;8.40;;;;;13.54;54.69;101944.63;2072376;28;46433;-65
2023/05/18 04:08:07;;;;;;;;;11.00;9.00;;;;;13.55;54.71;101945.50;2072587;28;46415;-64
2023/05/18 04:09:07;;;;;;;;;6.50;6.50;;;;;13.53;54.63;101937.53;2072544;28;47039;-65
2023/05/18 04:10:12;;;;;;;;;9.00;7.00;;;;;13.53;54.69;101945.53;2072453;28;46231;-66
2023/05/18 04:11:12;;;;;;;;;8.25;8.25;;;;;13.53;54.76;101941.97;2072771;28;46394;-64
2023/05/18 04:12:12;;;;;;;;;8.67;8.33;;;;;13.53;54.96;101944.63;2072431;28;46466;-67
2023/05/18 04:13:13;;;;;;;;;9.33;9.00;;;;;13.52;54.47;101949.09;2069546;28;46601;-65
2023/05/18 04:14:13;;;;;;;;;3.00;3.00;;;;;13.53;54.78;101949.97;2069767;28;46307;-66
2023/05/18 04:15:14;;;;;;;;;9.67;9.00;;;;;13.53;54.82;101947.31;2072711;28;46710;-66
2023/05/18 04:16:14;;;;;;;;;7.67;7.67;;;;;13.51;54.99;101952.66;2072558;28;46886;-66
2023/05/18 04:17:21;;;;;;;;;8.33;8.33;;;;;13.49;54.89;101946.47;2072486;28;46930;-66
2023/05/18 04:18:22;;;;;;;;;9.50;7.75;;;;;13.50;54.79;101950.03;2072044;28;46438;-66
2023/05/18 04:19:22;;;;;;;;;7.00;7.00;;;;;13.49;54.82;101954.47;2072839;28;46055;-65
2023/05/18 04:20:23;;;;;;;;;7.25;6.50;;;;;13.47;54.88;101953.63;2073447;28;46543;-65
2023/05/18 04:21:23;;;;;;;;;6.75;6.75;;;;;13.48;54.71;101949.16;2072834;28;46608;-64
2023/05/18 04:22:24;;;;;;;;;9.25;8.00;;;;;13.48;54.79;101951.84;2072914;28;46657;-67
2023/05/18 04:23:25;;;;;;;;;9.33;8.00;;;;;13.48;54.82;101955.38;2069189;28;46354;-68
2023/05/18 04:24:25;;;;;;;;;9.00;9.00;;;;;13.47;54.78;101950.06;2070463;28;46185;-66
2023/05/18 04:25:26;;;;;;;;;11.00;11.00;;;;;13.48;54.95;101960.72;2071873;28;46213;-65
2023/05/18 04:26:27;;;;;;;;;10.00;7.00;;;;;13.48;54.88;101954.50;2071146;28;46368;-65
2023/05/18 04:27:28;;;;;;;;;9.75;8.75;;;;;13.46;54.96;101965.16;2073693;28;45868;-65
2023/05/18 04:28:29;;;;;;;;;10.00;9.00;;;;;13.45;54.84;101966.06;2073186;28;46217;-66
2023/05/18 04:29:29;;;;;;;;;8.33;7.33;;;;;13.44;54.89;101958.97;2072408;28;46323;-66
2023/05/18 04:30:31;;;;;;;;;10.25;9.25;;;;;13.45;54.76;101958.06;2072574;28;46876;-64
2023/05/18 04:31:33;;;;;;;;;9.20;8.40;;;;;13.44;54.97;101964.31;2072708;28;45828;-65
2023/05/18 04:32:35;;;;;;;;;10.75;9.75;;;;;13.44;55.02;101960.75;2072225;28;46886;-65
2023/05/18 04:33:35;;;;;;;;;12.20;10.60;;;;;13.43;54.87;101965.22;2072259;28;46948;-65
2023/05/18 04:34:36;;;;;;;;;9.50;9.00;;;;;13.44;55.11;101966.09;2070960;28;45243;-65
2023/05/18 04:35:36;;;;;;;;;8.25;8.00;;;;;13.44;54.89;101968.75;2066383;28;46441;-65
2023/05/18 04:36:41;;;;;;;;;9.00;8.50;;;;;13.42;55.02;101968.78;2075826;28;46674;-66
2023/05/18 04:37:41;;;;;;;;;10.40;10.00;;;;;13.43;55.12;101967.00;2071343;28;46640;-65
2023/05/18 04:38:42;;;;;;;;;11.67;9.33;;;;;13.42;55.13;101970.56;2072390;28;46329;-65
2023/05/18 04:39:42;;;;;;;;;8.00;7.67;;;;;13.43;54.89;101977.66;2072597;28;46396;-65
2023/05/18 04:40:42;;;;;;;;;9.00;8.25;;;;;13.42;55.14;101967.91;2071220;28;46596;-67
2023/05/18 04:41:44;;;;;;;;;10.00;8.25;;;;;13.42;55.15;101976.78;2072531;28;46266;-65
2023/05/18 04:42:46;;;;;;;;;8.20;8.20;;;;;13.42;55.02;101979.44;2071520;28;46715;-65
2023/05/18 04:43:46;;;;;;;;;8.80;8.80;;;;;13.43;54.95;101972.34;2072519;28;46882;-67
2023/05/18 04:44:47;;;;;;;;;12.25;10.25;;;;;13.43;55.05;101969.66;2072492;28;46447;-65
2023/05/18 04:45:49;;;;;;;;;12.80;12.60;;;;;13.40;55.03;101975.94;2071503;28;46738;-66
2023/05/18 04:46:51;;;;;;;;;11.80;9.60;;;;;13.38;55.03;101967.06;2072173;28;46887;-66
2023/05/18 04:47:54;;;;;;;;;9.80;9.80;;;;;13.39;55.16;101973.28;2072705;28;46588;-67